Pede Vento — CRLZ9 — position and weather

sailwx.info

Track history (hours):
 
Tides and Currents Weather Stations Pressure Air Temp Water Temp Dewpoint Dewpoint Depression Visibility Wind Speed Wind Dir Waves Ship Positions

Pede Vento

Last reported at 2017-May-07 08:15 UTC. Time now 2017-May-26 05:44 UTC.
Position N 38°42' W 009°10'.
Warning: this ship's position is 18 days out of date.

Length 12 m.

Type: Sailing vessel. MMSI: 263819560.

Date/timePositionNaut miles runAvg speedWind from/ knotsBaromVisibWave heightAir tempDewpointWater temp
2017-May-07 08:15N 38°42' W 009°10'2 5.4
2017-May-07 07:50N 38°41' W 009°13'2 4.9
2017-May-07 07:27N 38°41' W 009°15'2 4.9
2017-May-07 07:00N 38°40' W 009°18'3 5.8
2017-May-07 06:28N 38°37' W 009°19'3 5.6
2017-May-07 05:58N 38°35' W 009°19'3 5.8
2017-May-07 05:27N 38°32' W 009°19'3 6.1
2017-May-07 04:53N 38°28' W 009°17'17 6.5
2017-May-07 02:18N 38°14' W 009°08'2 6.6
2017-May-07 02:00N 38°12' W 009°07'3 6.3
2017-May-07 01:30N 38°09' W 009°05'3 6.2
2017-May-07 01:00N 38°06' W 009°02'3 6.2
2017-May-07 00:30N 38°04' W 009°00'3 6.2
2017-May-07 00:00N 38°01' W 008°58'3 6.4
2017-May-06 23:30N 37°59' W 008°56'3 6.3
2017-May-06 23:00N 37°56' W 008°53'1 2.9
2017-May-06 22:30N 37°57' W 008°52'0 0.0
2017-May-06 17:57N 37°57' W 008°52'1 3.2
2017-May-06 17:30N 37°56' W 008°53'3 5.7
2017-May-06 17:00N 37°59' W 008°53'3 6.1
2017-May-06 16:30N 38°02' W 008°53'3 5.7
2017-May-06 16:00N 38°05' W 008°52'3 5.1
2017-May-06 15:30N 38°07' W 008°52'2 3.6
2017-May-06 15:00N 38°09' W 008°51'23 1.3
2017-May-05 20:43N 38°24' W 009°13'1 6.8
2017-May-05 20:30N 38°26' W 009°14'4 7.5
2017-May-05 19:57N 38°30' W 009°16'5 7.6
2017-May-05 19:21N 38°34' W 009°17'3 7.8
2017-May-05 18:58N 38°37' W 009°18'3 6.1
2017-May-05 18:30N 38°40' W 009°19'2 4.4
2017-May-05 18:00N 38°41' W 009°17'2 4.6
2017-May-05 17:30N 38°42' W 009°14'  
Track history (hours):
 
Tides and Currents Weather Stations Pressure Air Temp Water Temp Dewpoint Dewpoint Depression Visibility Wind Speed Wind Dir Waves Ship Positions

Pede Vento

Last reported at 2017-May-07 08:15 UTC. Time now 2017-May-26 05:44 UTC.
Position N 38°42' W 009°10'.
Warning: this ship's position is 18 days out of date.

Length 12 m.

Type: Sailing vessel. MMSI: 263819560.

Date/timePositionNaut miles runAvg speedWind from/ knotsBaromVisibWave heightAir tempDewpointWater temp
2017-May-07 08:15N 38°42' W 009°10'2 5.4
2017-May-07 07:50N 38°41' W 009°13'2 4.9
2017-May-07 07:27N 38°41' W 009°15'2 4.9
2017-May-07 07:00N 38°40' W 009°18'3 5.8
2017-May-07 06:28N 38°37' W 009°19'3 5.6
2017-May-07 05:58N 38°35' W 009°19'3 5.8
2017-May-07 05:27N 38°32' W 009°19'3 6.1
2017-May-07 04:53N 38°28' W 009°17'17 6.5
2017-May-07 02:18N 38°14' W 009°08'2 6.6
2017-May-07 02:00N 38°12' W 009°07'3 6.3
2017-May-07 01:30N 38°09' W 009°05'3 6.2
2017-May-07 01:00N 38°06' W 009°02'3 6.2
2017-May-07 00:30N 38°04' W 009°00'3 6.2
2017-May-07 00:00N 38°01' W 008°58'3 6.4
2017-May-06 23:30N 37°59' W 008°56'3 6.3
2017-May-06 23:00N 37°56' W 008°53'1 2.9
2017-May-06 22:30N 37°57' W 008°52'0 0.0
2017-May-06 17:57N 37°57' W 008°52'1 3.2
2017-May-06 17:30N 37°56' W 008°53'3 5.7
2017-May-06 17:00N 37°59' W 008°53'3 6.1
2017-May-06 16:30N 38°02' W 008°53'3 5.7
2017-May-06 16:00N 38°05' W 008°52'3 5.1
2017-May-06 15:30N 38°07' W 008°52'2 3.6
2017-May-06 15:00N 38°09' W 008°51'23 1.3
2017-May-05 20:43N 38°24' W 009°13'1 6.8
2017-May-05 20:30N 38°26' W 009°14'4 7.5
2017-May-05 19:57N 38°30' W 009°16'5 7.6
2017-May-05 19:21N 38°34' W 009°17'3 7.8
2017-May-05 18:58N 38°37' W 009°18'3 6.1
2017-May-05 18:30N 38°40' W 009°19'2 4.4
2017-May-05 18:00N 38°41' W 009°17'2 4.6
2017-May-05 17:30N 38°42' W 009°14'  

Dump ship's entire track history